CheckWX is a tool to help pilots better visualize weather data.  It is not intended as a substitute for an official pre-flight weather briefing.

07:37:47 UTC

EGPU TAF
Tiree Airport
Balemartine, United Kingdom
TAF EGPU 200504Z 2006/2015 25012KT 9999 SCT018 TEMPO 2006/2015 27018G28KT TEMPO 2006/2009 6000 SHRA BKN012 PROB30 TEMPO 2009/2015 6000 SHRA BKN012

Jun-20@
06:00 UTC

Jun-20 @ 06:00 UTC

Jun-20@
15:00 UTC

Jun-20 @ 15:00 UTC

TAF EGPU 200504Z 2006/2015 25012KT 9999 SCT018
Wind
  • 250° at 12 KTS
Cloud Levels
  • Scattered at 1,800' AGL

Jun-20@
06:00 UTC

Jun-20 @ 06:00 UTC

Jun-20@
09:00 UTC

Jun-20 @ 09:00 UTC

TEMPO 2006/2009 6000 SHRA BKN012

Temporary

Temporary Changes expected for less than half the time period

Conditions
Rain
Cloud Levels
  • Broken at 1,200' AGL

Jun-20@
06:00 UTC

Jun-20 @ 06:00 UTC

Jun-20@
15:00 UTC

Jun-20 @ 15:00 UTC

TEMPO 2006/2009 6000 SHRA BKN012

Temporary

Temporary Changes expected for less than half the time period

Wind
  • 270° at 18 KTS
  • {Gusting to 28 KTS

Jun-20@
09:00 UTC

Jun-20 @ 09:00 UTC

Jun-20@
15:00 UTC

Jun-20 @ 15:00 UTC

PROB30 TEMPO 2009/2015 6000 SHRA BKN012

Temporary - 30% Likelihood

Temporary - 30% Likelihood during this time.

Conditions
Rain
Cloud Levels
  • Broken at 1,200' AGL